Time;durP1;ratioP1;P1;durP2;ratioP2;P2;SDS_P1;SDS_P2;PMS_P1;PMS_P2;Temp;Humidity;BMP_temperature;BMP_pressure;BME280_temperature;BME280_humidity;BME280_pressure;Samples;Min_cycle;Max_cycle;Signal;HPM_P1;HPM_P2
2023/05/08 00:01:10;;;;;;;;;16.50;15.00;;;;;;;;2018444;27;2814846;-72
2023/05/08 00:02:21;;;;;;;;;16.33;15.33;;;;;;;;2015971;27;2804480;-72
2023/05/08 00:03:31;;;;;;;;;24.00;19.50;;;;;;;;2041331;27;2807576;-72
2023/05/08 00:04:43;;;;;;;;;17.60;16.80;;;;;;;;2040376;27;3558578;-72
2023/05/08 00:05:56;;;;;;;;;17.14;15.00;;;;;;;;2055975;27;3547482;-72
2023/05/08 00:07:09;;;;;;;;;17.57;14.00;;;;;;;;2056101;27;3545066;-72
2023/05/08 00:08:21;;;;;;;;;18.00;12.60;;;;;;;;2050831;27;3540834;-72
2023/05/08 00:09:32;;;;;;;;;17.67;15.67;;;;;;;;2057167;27;3550265;-72
2023/05/08 00:10:44;;;;;;;;;18.80;14.00;;;;;;;;2059858;27;3553319;-72
2023/05/08 00:11:57;;;;;;;;;15.67;14.50;;;;;;;;2071314;27;2808552;-72
2023/05/08 00:13:09;;;;;;;;;16.80;14.00;;;;;;;;2041135;27;3548133;-72
2023/05/08 00:14:21;;;;;;;;;17.00;15.40;;;;;;;;2070038;27;3530534;-72
2023/05/08 00:15:34;;;;;;;;;19.60;16.40;;;;;;;;2061497;27;3547120;-72
2023/05/08 00:16:45;;;;;;;;;16.33;13.67;;;;;;;;2040458;27;2813788;-72
2023/05/08 00:17:57;;;;;;;;;14.00;13.00;;;;;;;;2039813;27;2813343;-72
2023/05/08 00:19:07;;;;;;;;;11.00;11.00;;;;;;;;2040707;27;2787754;-72
2023/05/08 00:20:19;;;;;;;;;16.80;14.20;;;;;;;;2042140;27;2795154;-72
2023/05/08 00:21:30;;;;;;;;;20.00;16.33;;;;;;;;2022959;27;3573704;-72
2023/05/08 00:22:43;;;;;;;;;19.00;16.57;;;;;;;;2055051;27;3563813;-72
2023/05/08 00:23:55;;;;;;;;;19.60;18.20;;;;;;;;2069034;27;3552265;-72
2023/05/08 00:25:07;;;;;;;;;19.33;16.67;;;;;;;;2055665;27;3561694;-72
2023/05/08 00:26:20;;;;;;;;;18.00;17.40;;;;;;;;2051470;27;3558561;-72
2023/05/08 00:27:31;;;;;;;;;17.00;16.00;;;;;;;;2038669;27;3562744;-72
2023/05/08 00:28:44;;;;;;;;;17.86;16.29;;;;;;;;2053352;27;3561686;-72
2023/05/08 00:29:57;;;;;;;;;19.14;15.14;;;;;;;;2056430;27;3555460;-72
2023/05/08 00:31:09;;;;;;;;;17.60;16.20;;;;;;;;2068563;27;3552279;-72
2023/05/08 00:32:20;;;;;;;;;15.25;13.75;;;;;;;;2060925;27;1833681;-72
2023/05/08 00:33:30;;;;;;;;;13.50;13.00;;;;;;;;2033146;27;2799245;-72
2023/05/08 00:34:43;;;;;;;;;15.43;14.43;;;;;;;;2061777;27;3537760;-72
2023/05/08 00:36:02;;;;;;;;;16.60;16.40;;;;;;;;2070110;27;3563197;-72
2023/05/08 00:37:13;;;;;;;;;21.67;18.00;;;;;;;;2030809;27;3573161;-72
2023/05/08 00:38:25;;;;;;;;;18.60;18.20;;;;;;;;2061513;27;3563733;-72
2023/05/08 00:39:38;;;;;;;;;19.43;16.71;;;;;;;;2064590;27;3564812;-72
2023/05/08 00:40:50;;;;;;;;;12.50;10.83;;;;;;;;2059871;27;2795042;-72
2023/05/08 00:42:02;;;;;;;;;18.60;14.80;;;;;;;;2042778;27;3540295;-72
2023/05/08 00:43:14;;;;;;;;;16.14;15.14;;;;;;;;2053138;27;3549187;-72
2023/05/08 00:44:26;;;;;;;;;17.40;15.40;;;;;;;;2061912;27;3547068;-72
2023/05/08 00:45:40;;;;;;;;;17.00;13.14;;;;;;;;2054474;27;2803356;-72
2023/05/08 00:46:50;;;;;;;;;13.00;12.00;;;;;;;;2036643;27;2804472;-73
2023/05/08 00:48:02;;;;;;;;;16.00;15.33;;;;;;;;2030309;27;3556478;-72
2023/05/08 00:49:14;;;;;;;;;19.33;15.67;;;;;;;;2047327;27;3532599;-72
2023/05/08 00:50:26;;;;;;;;;19.00;15.33;;;;;;;;2033661;27;3558554;-72
2023/05/08 00:51:39;;;;;;;;;18.29;14.14;;;;;;;;2052647;27;3530454;-72
2023/05/08 00:52:50;;;;;;;;;17.50;15.00;;;;;;;;2025421;28;2806513;-72
2023/05/08 00:54:01;;;;;;;;;20.60;17.60;;;;;;;;2023324;28;3562768;-72
2023/05/08 00:55:13;;;;;;;;;23.67;19.00;;;;;;;;2038050;27;3570043;-72
2023/05/08 00:56:26;;;;;;;;;16.00;15.67;;;;;;;;2048934;27;2823197;-72
2023/05/08 00:57:37;;;;;;;;;19.33;16.33;;;;;;;;2032211;27;3556474;-73
2023/05/08 00:58:51;;;;;;;;;18.00;15.14;;;;;;;;2045499;27;3525277;-72
2023/05/08 01:00:03;;;;;;;;;15.33;14.00;;;;;;;;2036903;27;2817046;-72
2023/05/08 01:01:14;;;;;;;;;20.00;15.67;;;;;;;;2039335;27;2833730;-72
2023/05/08 01:02:25;;;;;;;;;17.00;12.50;;;;;;;;2040591;27;2809634;-72
2023/05/08 01:03:38;;;;;;;;;14.57;13.00;;;;;;;;2035033;27;3521016;-72
2023/05/08 01:04:51;;;;;;;;;16.40;14.00;;;;;;;;2052029;27;3543940;-72
2023/05/08 01:06:02;;;;;;;;;18.00;15.00;;;;;;;;2021534;27;2811721;-72
2023/05/08 01:07:13;;;;;;;;;17.00;15.33;;;;;;;;2001885;27;3533583;-72
2023/05/08 01:08:26;;;;;;;;;18.43;11.14;;;;;;;;2047875;27;3532521;-72
2023/05/08 01:09:39;;;;;;;;;15.57;13.29;;;;;;;;2054789;27;3528351;-72
2023/05/08 01:10:58;;;;;;;;;17.20;13.00;;;;;;;;2068912;27;1835756;-72
2023/05/08 01:12:15;;;;;;;;;14.00;13.00;;;;;;;;2030843;27;3542954;-72
2023/05/08 01:13:35;;;;;;;;;18.33;15.67;;;;;;;;2027773;27;3560664;-72
2023/05/08 01:14:52;;;;;;;;;16.67;15.00;;;;;;;;2031654;27;2803809;-72
2023/05/08 01:16:11;;;;;;;;;15.00;11.50;;;;;;;;2032798;27;2791950;-72
2023/05/08 01:17:34;;;;;;;;;18.00;11.00;;;;;;;;2017841;27;2794032;-72
2023/05/08 01:18:49;;;;;;;;;17.67;14.67;;;;;;;;2040143;27;2805463;-72
2023/05/08 01:20:03;;;;;;;;;15.00;14.00;;;;;;;;2040512;27;2799257;-72
2023/05/08 01:21:18;;;;;;;;;14.00;12.00;;;;;;;;2017069;27;2785724;-72
2023/05/08 01:22:47;;;;;;;;;19.00;12.50;;;;;;;;2011086;27;2804417;-72
2023/05/08 01:23:58;;;;;;;;;15.00;15.00;;;;;;;;2031139;27;2802354;-72
2023/05/08 01:25:30;;;;;;;;;18.00;13.67;;;;;;;;2043407;27;2811776;-72
2023/05/08 01:26:58;;;;;;;;;18.00;14.50;;;;;;;;2003122;28;2809685;-72
2023/05/08 01:28:09;;;;;;;;;19.67;14.00;;;;;;;;2025944;27;3555449;-72
2023/05/08 01:29:35;;;;;;;;;18.00;14.40;;;;;;;;2062280;27;3544051;-72
2023/05/08 01:30:54;;;;;;;;;11.50;11.50;;;;;;;;2028637;27;2781517;-72
2023/05/08 01:32:11;;;;;;;;;12.50;12.50;;;;;;;;2034687;27;1835789;-72
2023/05/08 01:33:22;;;;;;;;;18.67;15.67;;;;;;;;2013364;27;3532540;-72
2023/05/08 01:34:39;;;;;;;;;16.83;15.83;;;;;;;;2065019;28;2816889;-72
2023/05/08 01:35:57;;;;;;;;;16.86;14.71;;;;;;;;2036442;27;1839893;-72
2023/05/08 01:37:11;;;;;;;;;16.00;14.00;;;;;;;;2040466;27;3547182;-72
2023/05/08 01:38:30;;;;;;;;;16.67;14.33;;;;;;;;2040220;27;3539851;-72
2023/05/08 01:39:41;;;;;;;;;16.33;14.67;;;;;;;;2039509;27;2811802;-72
2023/05/08 01:41:00;;;;;;;;;15.33;13.00;;;;;;;;2031065;27;3542948;-72
2023/05/08 01:42:23;;;;;;;;;14.00;11.00;;;;;;;;2033994;27;2782559;-72
2023/05/08 01:43:39;;;;;;;;;16.00;11.50;;;;;;;;2017453;27;2791945;-72
2023/05/08 01:44:56;;;;;;;;;17.00;14.00;;;;;;;;2017538;27;3541904;-72
2023/05/08 01:46:11;;;;;;;;;16.00;15.00;;;;;;;;2039776;27;2811712;-72
2023/05/08 01:47:24;;;;;;;;;12.50;11.00;;;;;;;;2016517;27;2785692;-72
2023/05/08 01:48:48;;;;;;;;;15.33;14.17;;;;;;;;2041910;27;1827450;-72
2023/05/08 01:50:07;;;;;;;;;11.17;11.17;;;;;;;;2045080;27;1831622;-72
2023/05/08 01:51:20;;;;;;;;;16.50;12.50;;;;;;;;2017567;27;2798203;-72
2023/05/08 01:52:34;;;;;;;;;15.00;11.00;;;;;;;;2008623;27;2786721;-72
2023/05/08 01:53:48;;;;;;;;;13.00;11.50;;;;;;;;2009822;27;2789869;-72
2023/05/08 01:55:00;;;;;;;;;10.00;9.00;;;;;;;;2007511;27;2771094;-72
2023/05/08 01:56:17;;;;;;;;;16.00;12.33;;;;;;;;2008690;27;2799257;-72
2023/05/08 01:57:29;;;;;;;;;15.50;14.00;;;;;;;;2039468;27;2804924;-72
2023/05/08 01:58:44;;;;;;;;;17.43;16.00;;;;;;;;2046918;27;1827411;-72
2023/05/08 01:59:56;;;;;;;;;11.00;11.00;;;;;;;;2040226;27;2786760;-72
2023/05/08 02:01:10;;;;;;;;;18.80;14.00;;;;;;;;2036656;27;2825237;-72
2023/05/08 02:02:21;;;;;;;;;16.50;15.50;;;;;;;;2015159;27;2806552;-72
2023/05/08 02:03:33;;;;;;;;;16.00;15.00;;;;;;;;2008699;27;2816941;-72
2023/05/08 02:04:44;;;;;;;;;14.33;13.33;;;;;;;;2011116;27;2819027;-72
2023/05/08 02:05:56;;;;;;;;;17.00;11.50;;;;;;;;2033040;27;2798251;-72
2023/05/08 02:07:06;;;;;;;;;17.00;14.50;;;;;;;;2034950;27;2795073;-72
2023/05/08 02:08:20;;;;;;;;;13.50;12.25;;;;;;;;2068337;27;1831527;-72
2023/05/08 02:09:31;;;;;;;;;14.50;14.50;;;;;;;;2017736;27;2795059;-72
2023/05/08 02:10:42;;;;;;;;;10.50;9.50;;;;;;;;2016632;27;2775227;-72
2023/05/08 02:11:54;;;;;;;;;15.00;14.00;;;;;;;;2045568;27;2790886;-72
2023/05/08 02:13:06;;;;;;;;;11.33;11.33;;;;;;;;2039088;27;2789830;-72
2023/05/08 02:14:18;;;;;;;;;20.67;14.33;;;;;;;;2041724;27;3537678;-72
2023/05/08 02:15:30;;;;;;;;;15.67;12.33;;;;;;;;2038098;27;3550239;-72
2023/05/08 02:16:42;;;;;;;;;15.00;11.50;;;;;;;;2040317;27;2786721;-72
2023/05/08 02:17:57;;;;;;;;;15.50;14.50;;;;;;;;2048363;27;1833622;-72
2023/05/08 02:19:09;;;;;;;;;18.00;14.00;;;;;;;;2013141;27;2802354;-72
2023/05/08 02:20:22;;;;;;;;;15.67;14.50;;;;;;;;2041529;27;1827920;-72
2023/05/08 02:21:36;;;;;;;;;12.33;12.33;;;;;;;;2048642;27;1827404;-72
2023/05/08 02:22:49;;;;;;;;;17.67;14.00;;;;;;;;2008133;27;2815902;-72
2023/05/08 02:24:00;;;;;;;;;12.00;10.00;;;;;;;;2030870;27;2796085;-72
2023/05/08 02:25:13;;;;;;;;;5.33;4.33;;;;;;;;2010240;27;2748126;-72
2023/05/08 02:26:24;;;;;;;;;20.00;17.00;;;;;;;;2033028;27;2833579;-72
2023/05/08 02:27:35;;;;;;;;;14.00;10.00;;;;;;;;2007464;27;2791957;-72
2023/05/08 02:28:47;;;;;;;;;18.00;15.00;;;;;;;;2019739;27;2807523;-72
2023/05/08 02:29:59;;;;;;;;;17.67;14.67;;;;;;;;2019124;27;2810647;-72
2023/05/08 02:31:10;;;;;;;;;19.00;16.50;;;;;;;;2034985;27;2826252;-72
2023/05/08 02:32:24;;;;;;;;;19.67;17.33;;;;;;;;2007657;27;3563834;-72
2023/05/08 02:33:35;;;;;;;;;18.50;16.00;;;;;;;;2040946;27;2824216;-72
2023/05/08 02:34:48;;;;;;;;;19.00;15.33;;;;;;;;2027259;27;3550296;-72
2023/05/08 02:35:59;;;;;;;;;17.00;12.50;;;;;;;;2026335;27;2813123;-72
2023/05/08 02:37:11;;;;;;;;;18.00;16.33;;;;;;;;2037646;27;3554391;-72
2023/05/08 02:38:22;;;;;;;;;15.50;15.50;;;;;;;;2039792;27;2805499;-72
2023/05/08 02:39:34;;;;;;;;;19.00;15.67;;;;;;;;2006993;27;3563776;-72
2023/05/08 02:40:50;;;;;;;;;20.67;16.33;;;;;;;;2026302;27;3562069;-72
2023/05/08 02:42:01;;;;;;;;;18.00;15.33;;;;;;;;2032609;27;3549229;-72
2023/05/08 02:43:13;;;;;;;;;20.00;15.20;;;;;;;;2058693;27;3541967;-72
2023/05/08 02:44:25;;;;;;;;;13.20;11.40;;;;;;;;2066124;27;3508556;-72
2023/05/08 02:45:46;;;;;;;;;17.00;15.33;;;;;;;;2053205;27;2814857;-72
2023/05/08 02:46:59;;;;;;;;;20.50;16.50;;;;;;;;2040673;27;2827352;-72
2023/05/08 02:48:33;;;;;;;;;17.67;17.33;;;;;;;;2013746;27;3563812;-72
2023/05/08 02:49:51;;;;;;;;;19.00;16.33;;;;;;;;2004315;28;3563873;-72
2023/05/08 02:51:09;;;;;;;;;13.00;13.00;;;;;;;;2034552;27;2798179;-72
2023/05/08 02:52:31;;;;;;;;;20.50;18.00;;;;;;;;2041415;27;2829425;-72
2023/05/08 02:53:47;;;;;;;;;10.00;8.50;;;;;;;;2008958;27;2756911;-72
2023/05/08 02:55:16;;;;;;;;;18.33;17.67;;;;;;;;2037558;27;3566894;-72
2023/05/08 02:56:33;;;;;;;;;18.50;16.50;;;;;;;;2041927;27;2825294;-72
2023/05/08 02:57:52;;;;;;;;;18.67;16.67;;;;;;;;2015430;27;3561683;-72
2023/05/08 02:59:19;;;;;;;;;24.00;20.50;;;;;;;;2041925;27;2839867;-72
2023/05/08 03:00:36;;;;;;;;;20.00;20.00;;;;;;;;2041187;27;2837749;-72
2023/05/08 03:01:49;;;;;;;;;20.50;17.50;;;;;;;;2017166;27;2830485;-72
2023/05/08 03:03:06;;;;;;;;;19.67;18.00;;;;;;;;2012135;27;3568531;-72
2023/05/08 03:04:44;;;;;;;;;23.00;20.33;;;;;;;;2031350;27;3566891;-72
2023/05/08 03:05:56;;;;;;;;;21.50;20.00;;;;;;;;2012272;27;2841943;-72
2023/05/08 03:07:07;;;;;;;;;23.00;22.00;;;;;;;;2016923;27;2842451;-72
2023/05/08 03:08:22;;;;;;;;;17.67;14.00;;;;;;;;2023179;27;3553317;-72
2023/05/08 03:09:37;;;;;;;;;25.00;21.67;;;;;;;;2030278;27;3572077;-72
2023/05/08 03:10:50;;;;;;;;;30.67;23.67;;;;;;;;2016898;27;2848122;-72
2023/05/08 03:12:03;;;;;;;;;22.00;19.67;;;;;;;;2041912;27;2836744;-72
2023/05/08 03:13:15;;;;;;;;;22.67;21.33;;;;;;;;2032833;27;2837766;-72
2023/05/08 03:14:27;;;;;;;;;22.00;18.00;;;;;;;;2042218;27;2826310;-72
2023/05/08 03:15:47;;;;;;;;;18.67;17.33;;;;;;;;2023378;27;2833655;-72
2023/05/08 03:16:59;;;;;;;;;19.00;16.67;;;;;;;;2039829;27;3559626;-72
2023/05/08 03:18:12;;;;;;;;;16.00;16.00;;;;;;;;2041824;27;2809625;-72
2023/05/08 03:19:27;;;;;;;;;25.50;20.50;;;;;;;;2007914;27;2844106;-72
2023/05/08 03:20:38;;;;;;;;;28.00;22.50;;;;;;;;1996186;28;2844006;-72
2023/05/08 03:21:50;;;;;;;;;19.67;17.00;;;;;;;;2000791;27;3560649;-72
2023/05/08 03:23:03;;;;;;;;;21.00;19.33;;;;;;;;2033750;27;3572091;-72
2023/05/08 03:24:14;;;;;;;;;23.00;22.00;;;;;;;;2042566;27;2834656;-72
2023/05/08 03:25:26;;;;;;;;;22.00;19.00;;;;;;;;2011140;27;3559626;-72
2023/05/08 03:26:37;;;;;;;;;22.00;22.00;;;;;;;;2010398;27;2819382;-72
2023/05/08 03:27:49;;;;;;;;;14.20;13.60;;;;;;;;2020763;27;2801258;-72
2023/05/08 03:29:00;;;;;;;;;20.00;16.67;;;;;;;;2018053;28;3554776;-72
2023/05/08 03:30:13;;;;;;;;;21.33;19.00;;;;;;;;2034428;27;3571450;-72
2023/05/08 03:31:24;;;;;;;;;25.50;22.00;;;;;;;;2033149;27;2848197;-72
2023/05/08 03:32:35;;;;;;;;;19.00;18.00;;;;;;;;2009586;27;2824193;-72
2023/05/08 03:33:46;;;;;;;;;22.00;18.00;;;;;;;;2013060;27;2835666;-72
2023/05/08 03:34:58;;;;;;;;;25.67;20.00;;;;;;;;2025222;27;3577331;-72
2023/05/08 03:36:10;;;;;;;;;27.40;23.60;;;;;;;;2055248;27;3584574;-72
2023/05/08 03:37:21;;;;;;;;;29.50;25.50;;;;;;;;2019003;27;2853365;-72
2023/05/08 03:38:33;;;;;;;;;24.00;22.20;;;;;;;;2027460;27;2844065;-72
2023/05/08 03:39:43;;;;;;;;;29.00;22.00;;;;;;;;2042724;27;2848171;-72
2023/05/08 03:40:55;;;;;;;;;21.33;17.67;;;;;;;;2036904;27;2839965;-72
2023/05/08 03:42:05;;;;;;;;;25.50;23.50;;;;;;;;2042530;27;2844075;-72
2023/05/08 03:43:19;;;;;;;;;26.20;21.00;;;;;;;;2041327;27;3583577;-72
2023/05/08 03:44:30;;;;;;;;;23.00;21.00;;;;;;;;2044616;27;2847093;-72
2023/05/08 03:45:42;;;;;;;;;23.20;22.20;;;;;;;;2026974;27;3565818;-72
2023/05/08 03:46:55;;;;;;;;;24.00;22.00;;;;;;;;2043656;27;2852806;-72
2023/05/08 03:48:07;;;;;;;;;23.00;21.00;;;;;;;;2019089;27;3577291;-72
2023/05/08 03:49:18;;;;;;;;;22.00;19.00;;;;;;;;2015620;27;3577307;-72
2023/05/08 03:50:30;;;;;;;;;22.00;20.00;;;;;;;;2013283;27;3563773;-72
2023/05/08 03:51:42;;;;;;;;;25.67;22.33;;;;;;;;2032626;27;3577314;-72
2023/05/08 03:52:54;;;;;;;;;24.80;20.20;;;;;;;;2044370;27;3572082;-72
2023/05/08 03:54:06;;;;;;;;;26.60;22.40;;;;;;;;2064710;27;3578332;-72
2023/05/08 03:55:17;;;;;;;;;23.40;21.00;;;;;;;;2044356;27;3572217;-72
2023/05/08 03:56:29;;;;;;;;;24.20;22.00;;;;;;;;2045599;27;3577279;-72
2023/05/08 03:57:49;;;;;;;;;24.20;22.00;;;;;;;;2035825;27;3581809;-72
2023/05/08 03:59:12;;;;;;;;;27.33;22.00;;;;;;;;2014423;27;3578375;-72
2023/05/08 04:00:41;;;;;;;;;21.50;19.00;;;;;;;;2017375;27;2823205;-72
2023/05/08 04:01:57;;;;;;;;;23.00;19.50;;;;;;;;2018201;27;2830470;-72
2023/05/08 04:03:27;;;;;;;;;26.50;20.00;;;;;;;;2012704;27;2833594;-72
2023/05/08 04:04:39;;;;;;;;;31.33;28.33;;;;;;;;2016295;27;3602325;-72
2023/05/08 04:05:50;;;;;;;;;30.00;27.50;;;;;;;;2009702;27;2853385;-72
2023/05/08 04:07:04;;;;;;;;;28.60;27.20;;;;;;;;2028286;27;3587699;-72
2023/05/08 04:08:18;;;;;;;;;27.67;23.67;;;;;;;;2042265;27;2831483;-72
2023/05/08 04:09:38;;;;;;;;;25.00;20.67;;;;;;;;2039934;27;3585624;-72
2023/05/08 04:10:51;;;;;;;;;18.00;16.00;;;;;;;;2018938;27;2816297;-72
2023/05/08 04:12:20;;;;;;;;;32.00;23.00;;;;;;;;2041664;27;2850301;-72
2023/05/08 04:13:35;;;;;;;;;28.67;23.67;;;;;;;;1999458;28;3599189;-72
2023/05/08 04:14:54;;;;;;;;;28.00;23.00;;;;;;;;2006848;27;2847148;-72
2023/05/08 04:16:14;;;;;;;;;25.00;23.00;;;;;;;;2008410;27;2847148;-72
2023/05/08 04:17:41;;;;;;;;;29.33;25.67;;;;;;;;2000215;27;3591928;-72
2023/05/08 04:18:56;;;;;;;;;27.67;24.67;;;;;;;;2010764;27;3582531;-72
2023/05/08 04:20:09;;;;;;;;;28.50;24.00;;;;;;;;2018699;27;2854447;-72
2023/05/08 04:21:21;;;;;;;;;29.00;23.00;;;;;;;;2009920;27;2841932;-72
2023/05/08 04:22:33;;;;;;;;;30.00;24.50;;;;;;;;2010446;27;2840916;-72
2023/05/08 04:23:47;;;;;;;;;26.33;23.33;;;;;;;;2015309;27;3589821;-72
2023/05/08 04:24:59;;;;;;;;;27.00;23.00;;;;;;;;2018616;27;2856574;-72
2023/05/08 04:26:11;;;;;;;;;24.00;19.00;;;;;;;;2001927;27;2835675;-72
2023/05/08 04:27:23;;;;;;;;;26.33;20.33;;;;;;;;2003483;27;3583564;-72
2023/05/08 04:28:34;;;;;;;;;25.00;23.40;;;;;;;;2026348;27;3596039;-72
2023/05/08 04:29:46;;;;;;;;;26.80;23.00;;;;;;;;2040988;27;3595094;-72
2023/05/08 04:31:01;;;;;;;;;33.38;26.63;;;;;;;;2039353;27;3596041;-72
2023/05/08 04:32:12;;;;;;;;;29.50;20.00;;;;;;;;2032978;27;2861711;-72
2023/05/08 04:33:24;;;;;;;;;27.80;23.40;;;;;;;;2033178;27;3574174;-72
2023/05/08 04:34:35;;;;;;;;;25.20;23.60;;;;;;;;2049334;27;3568962;-72
2023/05/08 04:35:48;;;;;;;;;29.20;26.40;;;;;;;;2036257;27;3575212;-72
2023/05/08 04:36:59;;;;;;;;;28.80;24.40;;;;;;;;2015476;27;3591850;-72
2023/05/08 04:38:11;;;;;;;;;27.20;23.60;;;;;;;;2036683;27;3580405;-72
2023/05/08 04:39:23;;;;;;;;;26.20;21.60;;;;;;;;2057554;27;3577279;-72
2023/05/08 04:40:34;;;;;;;;;29.80;23.40;;;;;;;;2017216;27;2863778;-72
2023/05/08 04:41:47;;;;;;;;;29.80;24.40;;;;;;;;2060145;27;3586663;-72
2023/05/08 04:42:57;;;;;;;;;26.50;22.00;;;;;;;;2038791;27;2848177;-72
2023/05/08 04:44:10;;;;;;;;;23.00;19.40;;;;;;;;2026930;27;2838871;-72
2023/05/08 04:45:21;;;;;;;;;26.33;22.67;;;;;;;;2041952;27;2840842;-72
2023/05/08 04:46:31;;;;;;;;;22.00;18.00;;;;;;;;2043144;27;2841908;-72
2023/05/08 04:47:43;;;;;;;;;20.40;18.60;;;;;;;;2044227;27;3552303;-72
2023/05/08 04:48:55;;;;;;;;;28.40;23.40;;;;;;;;2059524;27;3576277;-72
2023/05/08 04:50:08;;;;;;;;;23.80;20.60;;;;;;;;2059714;27;3564810;-72
2023/05/08 04:51:19;;;;;;;;;26.80;21.80;;;;;;;;2050228;27;3592892;-72
2023/05/08 04:52:31;;;;;;;;;25.40;23.20;;;;;;;;2043737;27;3578313;-72
2023/05/08 04:53:42;;;;;;;;;28.40;24.80;;;;;;;;2016548;27;2847238;-72
2023/05/08 04:54:53;;;;;;;;;21.40;21.20;;;;;;;;2037774;27;3579367;-72
2023/05/08 04:56:04;;;;;;;;;24.00;20.60;;;;;;;;2050353;27;2846090;-72
2023/05/08 04:57:15;;;;;;;;;30.00;23.80;;;;;;;;2040834;27;3587083;-72
2023/05/08 04:58:27;;;;;;;;;28.80;20.40;;;;;;;;2069202;27;3584615;-72
2023/05/08 04:59:39;;;;;;;;;30.20;26.00;;;;;;;;2045257;27;3597114;-72
2023/05/08 05:00:50;;;;;;;;;29.80;24.60;;;;;;;;2026571;27;2842072;-72
2023/05/08 05:02:02;;;;;;;;;33.20;26.20;;;;;;;;2039545;27;3592339;-72
2023/05/08 05:03:14;;;;;;;;;31.40;26.00;;;;;;;;2058600;27;3579369;-72
2023/05/08 05:04:26;;;;;;;;;23.00;21.80;;;;;;;;2034948;27;3575566;-72
2023/05/08 05:05:37;;;;;;;;;22.60;18.60;;;;;;;;2070314;27;3557496;-72
2023/05/08 05:06:50;;;;;;;;;28.20;24.20;;;;;;;;2066588;27;3592904;-72
2023/05/08 05:08:03;;;;;;;;;26.57;23.71;;;;;;;;2032010;27;3589807;-72
2023/05/08 05:09:14;;;;;;;;;26.00;20.00;;;;;;;;2023946;27;3581530;-72
2023/05/08 05:10:26;;;;;;;;;28.00;23.00;;;;;;;;2048530;27;3585660;-72
2023/05/08 05:11:39;;;;;;;;;17.71;14.29;;;;;;;;2040726;27;3537750;-72
2023/05/08 05:12:51;;;;;;;;;34.40;26.00;;;;;;;;2063666;27;3572064;-72
2023/05/08 05:14:03;;;;;;;;;24.40;18.60;;;;;;;;2045277;27;3560660;-72
2023/05/08 05:15:15;;;;;;;;;22.80;18.40;;;;;;;;2068102;27;3583609;-72
2023/05/08 05:16:27;;;;;;;;;25.00;22.60;;;;;;;;2037382;27;3566882;-72
2023/05/08 05:17:39;;;;;;;;;24.00;21.20;;;;;;;;2066335;27;3579396;-72
2023/05/08 05:18:51;;;;;;;;;28.00;23.80;;;;;;;;2025890;28;3576647;-72
2023/05/08 05:20:04;;;;;;;;;31.60;26.20;;;;;;;;2035187;27;3587719;-72
2023/05/08 05:21:16;;;;;;;;;20.33;17.00;;;;;;;;2017427;27;3555417;-72
2023/05/08 05:22:27;;;;;;;;;24.80;22.60;;;;;;;;2066117;27;3575200;-72
2023/05/08 05:23:40;;;;;;;;;28.00;24.20;;;;;;;;2044158;27;3590132;-72
2023/05/08 05:24:51;;;;;;;;;17.00;16.40;;;;;;;;2033221;27;3553365;-72
2023/05/08 05:26:03;;;;;;;;;20.60;18.20;;;;;;;;2069149;27;3559564;-72
2023/05/08 05:27:16;;;;;;;;;26.14;23.86;;;;;;;;2059809;27;3580467;-72
2023/05/08 05:28:27;;;;;;;;;29.20;25.00;;;;;;;;2026219;27;2835646;-72
2023/05/08 05:29:39;;;;;;;;;26.80;23.20;;;;;;;;2068100;27;3572110;-72
2023/05/08 05:30:51;;;;;;;;;28.60;26.00;;;;;;;;2059317;27;3578385;-72
2023/05/08 05:32:03;;;;;;;;;19.80;17.40;;;;;;;;2027037;27;3559579;-72
2023/05/08 05:33:16;;;;;;;;;26.71;23.86;;;;;;;;2056235;27;3592224;-72
2023/05/08 05:34:28;;;;;;;;;24.40;22.60;;;;;;;;2038303;27;3574162;-72
2023/05/08 05:35:42;;;;;;;;;21.67;18.00;;;;;;;;2046577;27;3575244;-72
2023/05/08 05:36:53;;;;;;;;;25.50;22.00;;;;;;;;2015503;27;2840879;-72
2023/05/08 05:38:06;;;;;;;;;29.43;25.71;;;;;;;;2038937;27;3587700;-72
2023/05/08 05:39:18;;;;;;;;;22.71;16.86;;;;;;;;2041443;27;3565877;-72
2023/05/08 05:40:31;;;;;;;;;26.86;23.71;;;;;;;;2024739;27;3589810;-72
2023/05/08 05:41:43;;;;;;;;;23.40;22.00;;;;;;;;2031185;27;3571022;-72
2023/05/08 05:42:55;;;;;;;;;25.20;21.60;;;;;;;;2068431;27;3574198;-72
2023/05/08 05:44:07;;;;;;;;;23.00;17.80;;;;;;;;2044541;27;3580415;-72
2023/05/08 05:45:18;;;;;;;;;24.20;19.40;;;;;;;;2023960;27;2837784;-72
2023/05/08 05:46:31;;;;;;;;;21.67;19.67;;;;;;;;2033209;27;3571466;-72
2023/05/08 05:47:48;;;;;;;;;26.00;21.33;;;;;;;;2011337;27;3571021;-72
2023/05/08 05:48:59;;;;;;;;;24.00;19.67;;;;;;;;2040459;27;3569009;-72
2023/05/08 05:50:12;;;;;;;;;22.14;20.57;;;;;;;;2060235;27;3564871;-72
2023/05/08 05:51:24;;;;;;;;;24.80;22.20;;;;;;;;2021040;27;2841976;-72
2023/05/08 05:52:34;;;;;;;;;17.00;17.00;;;;;;;;2042286;27;2820006;-72
2023/05/08 05:53:46;;;;;;;;;28.20;21.60;;;;;;;;2045960;27;3576273;-72
2023/05/08 05:54:59;;;;;;;;;30.00;22.14;;;;;;;;2064218;27;3585609;-72
2023/05/08 05:56:12;;;;;;;;;24.14;22.14;;;;;;;;2037041;27;3571078;-72
2023/05/08 05:57:23;;;;;;;;;22.40;18.80;;;;;;;;2027031;27;2841968;-72
2023/05/08 05:58:34;;;;;;;;;23.00;19.80;;;;;;;;2046356;27;3571042;-72
2023/05/08 05:59:45;;;;;;;;;27.20;19.80;;;;;;;;2050066;27;2839812;-72
2023/05/08 06:00:57;;;;;;;;;22.80;20.60;;;;;;;;2046606;27;3577340;-72
2023/05/08 06:02:09;;;;;;;;;19.33;16.67;;;;;;;;2041228;27;3560672;-72
2023/05/08 06:03:19;;;;;;;;;29.00;19.00;;;;;;;;2031422;27;2858712;-72
2023/05/08 06:04:31;;;;;;;;;21.80;17.60;;;;;;;;2019557;27;3560647;-72
2023/05/08 06:05:45;;;;;;;;;33.00;24.40;;;;;;;;2054904;27;3603682;-72
2023/05/08 06:06:55;;;;;;;;;24.50;15.50;;;;;;;;2003808;27;2852320;-72
2023/05/08 06:08:07;;;;;;;;;23.80;23.20;;;;;;;;2045053;27;3579371;-72
2023/05/08 06:09:19;;;;;;;;;25.40;22.60;;;;;;;;2057254;27;3581489;-72
2023/05/08 06:10:32;;;;;;;;;31.00;24.86;;;;;;;;2038170;27;3582999;-72
2023/05/08 06:11:44;;;;;;;;;26.60;24.00;;;;;;;;2026003;28;3584618;-72
2023/05/08 06:12:56;;;;;;;;;22.80;21.00;;;;;;;;2031651;27;3555417;-72
2023/05/08 06:14:08;;;;;;;;;23.60;20.20;;;;;;;;2060494;27;3577312;-72
2023/05/08 06:15:21;;;;;;;;;23.00;20.29;;;;;;;;2033529;27;3564197;-72
2023/05/08 06:16:34;;;;;;;;;19.20;16.40;;;;;;;;2050460;27;3571032;-72
2023/05/08 06:17:45;;;;;;;;;21.67;19.00;;;;;;;;2034223;27;2827302;-72
2023/05/08 06:18:55;;;;;;;;;23.50;19.50;;;;;;;;2042667;27;2837018;-72
2023/05/08 06:20:08;;;;;;;;;19.60;17.40;;;;;;;;2046039;27;3564806;-72
2023/05/08 06:21:19;;;;;;;;;15.67;14.67;;;;;;;;2055169;27;2806663;-72
2023/05/08 06:22:30;;;;;;;;;16.00;14.50;;;;;;;;2032858;27;2807551;-72
2023/05/08 06:23:42;;;;;;;;;19.67;17.67;;;;;;;;2046846;27;3559623;-72
2023/05/08 06:24:53;;;;;;;;;19.40;17.80;;;;;;;;2049101;27;3558573;-72
2023/05/08 06:26:06;;;;;;;;;21.00;17.29;;;;;;;;2063462;27;3557531;-72
2023/05/08 06:27:19;;;;;;;;;20.00;17.00;;;;;;;;2054852;27;3559640;-72
2023/05/08 06:28:30;;;;;;;;;21.50;18.50;;;;;;;;2033898;27;2837764;-72
2023/05/08 06:29:43;;;;;;;;;16.33;11.50;;;;;;;;2055723;27;2799221;-72
2023/05/08 06:30:55;;;;;;;;;16.60;15.80;;;;;;;;2035264;27;3551258;-72
2023/05/08 06:32:06;;;;;;;;;19.00;18.00;;;;;;;;2056103;27;3560976;-72
2023/05/08 06:33:19;;;;;;;;;18.57;16.57;;;;;;;;2063131;27;3531567;-72
2023/05/08 06:34:32;;;;;;;;;21.14;18.29;;;;;;;;2043492;27;3565949;-72
2023/05/08 06:35:46;;;;;;;;;17.86;16.43;;;;;;;;2053892;27;3547206;-72
2023/05/08 06:36:56;;;;;;;;;19.50;16.50;;;;;;;;2036224;27;2825348;-72
2023/05/08 06:38:09;;;;;;;;;20.29;18.00;;;;;;;;2033165;27;3559595;-72
2023/05/08 06:39:21;;;;;;;;;17.60;16.40;;;;;;;;2061461;27;3560618;-72
2023/05/08 06:40:33;;;;;;;;;21.40;18.60;;;;;;;;2060857;27;3557503;-72
2023/05/08 06:41:47;;;;;;;;;16.57;14.71;;;;;;;;2055251;27;3537741;-72
2023/05/08 06:42:57;;;;;;;;;18.00;13.00;;;;;;;;2032645;27;2816989;-72
2023/05/08 06:44:09;;;;;;;;;20.00;17.40;;;;;;;;2021352;27;3563205;-72
2023/05/08 06:45:21;;;;;;;;;21.33;18.67;;;;;;;;2040155;27;3562732;-72
2023/05/08 06:46:33;;;;;;;;;20.60;18.20;;;;;;;;2059950;27;3561676;-72
2023/05/08 06:47:44;;;;;;;;;18.80;18.00;;;;;;;;2068948;27;3559689;-72
2023/05/08 06:48:57;;;;;;;;;20.86;18.43;;;;;;;;2055334;27;3567295;-72
2023/05/08 06:50:09;;;;;;;;;16.80;16.80;;;;;;;;2059652;27;3552419;-72
2023/05/08 06:51:22;;;;;;;;;18.80;16.00;;;;;;;;2060267;27;3557478;-72
2023/05/08 06:52:33;;;;;;;;;16.20;15.20;;;;;;;;2043948;27;3540878;-73
2023/05/08 06:53:45;;;;;;;;;24.40;16.60;;;;;;;;2062047;27;3572061;-73
2023/05/08 06:54:58;;;;;;;;;18.00;17.86;;;;;;;;2039189;27;3571089;-73